Greer, Arizona
Current Conditions -  °F | °C
As of 5:55 AM on Thursday 27 Nov 2014 (Local Time) from KJTC Reporting Station
Clear Clear  
Wind Chill: 16°   Ceiling: Unl
Heat Index: 25°   Visibility: 10mi
Dew Point: 14°   Wind: 8mph
Humidity: 64%   Direction: 190°S
Pressure: 30.49"   Gusts: NA
Location:  34.01°N, 109.46°W
Report Text: KJTC 271255Z AUTO 19007KT 10SM CLR M04/M10 A3049 RMK AO2
Loading
Personal Weather Stations






























Interactive Weather Map New forecast layout! Learn more

10-Day Weather Forecast

Advertisements
Track Severe Weather on mobile